Time;durP1;ratioP1;P1;durP2;ratioP2;P2;SDS_P1;SDS_P2;PMS_P1;PMS_P2;Temp;Humidity;BMP_temperature;BMP_pressure;BME280_temperature;BME280_humidity;BME280_pressure;Samples;Min_cycle;Max_cycle;Signal;HPM_P1;HPM_P2
2022/01/03 00:01:45;;;;;;;4.95;1.60;;;27.40;55.50;;;;;;4992558;28;20485;-68
2022/01/03 00:04:13;;;;;;;7.00;1.83;;;27.40;56.50;;;;;;4975732;28;20042;-68
2022/01/03 00:06:40;;;;;;;4.22;1.52;;;27.50;57.10;;;;;;4992711;28;20088;-68
2022/01/03 00:09:08;;;;;;;6.43;1.67;;;27.50;57.10;;;;;;4992787;28;20034;-68
2022/01/03 00:11:35;;;;;;;6.95;1.95;;;27.60;56.80;;;;;;4975541;28;20105;-69
2022/01/03 00:14:03;;;;;;;5.45;1.70;;;27.60;57.50;;;;;;4992655;28;20034;-67
2022/01/03 00:16:33;;;;;;;7.50;1.70;;;27.60;57.70;;;;;;4975690;28;20485;-67
2022/01/03 00:19:00;;;;;;;6.68;1.88;;;27.70;56.50;;;;;;4975485;28;20397;-67
2022/01/03 00:21:34;;;;;;;6.97;2.50;;;27.60;57.50;;;;;;4975039;28;20038;-69
2022/01/03 00:24:11;;;;;;;7.35;2.08;;;27.60;56.90;;;;;;4975110;28;20045;-67
2022/01/03 00:26:38;;;;;;;10.02;2.22;;;27.50;55.70;;;;;;4992482;28;20424;-67
2022/01/03 00:29:16;;;;;;;11.50;2.25;;;27.50;56.60;;;;;;4992424;28;20034;-67
2022/01/03 00:31:43;;;;;;;7.53;1.75;;;27.50;56.60;;;;;;4974713;28;20033;-67
2022/01/03 00:34:12;;;;;;;6.50;2.17;;;27.60;58.50;;;;;;4958750;28;20046;-68
2022/01/03 00:36:39;;;;;;;10.02;1.83;;;27.40;56.00;;;;;;4992576;28;20030;-68
2022/01/03 00:39:08;;;;;;;7.55;2.08;;;27.40;57.20;;;;;;4974849;28;20038;-68
2022/01/03 00:41:38;;;;;;;11.02;2.45;;;27.30;57.50;;;;;;4975381;28;20484;-68
2022/01/03 00:44:06;;;;;;;6.13;1.60;;;27.30;56.80;;;;;;4975346;28;20121;-68
2022/01/03 00:46:33;;;;;;;6.18;1.58;;;27.20;56.40;;;;;;4992287;28;20388;-67
2022/01/03 00:49:43;;;;;;;6.45;1.95;;;27.10;56.60;;;;;;5110480;27;20974;-68
2022/01/03 00:52:11;;;;;;;6.20;1.90;;;27.20;56.30;;;;;;5129985;28;20106;-68
2022/01/03 00:54:38;;;;;;;5.25;1.75;;;27.20;56.60;;;;;;5129618;28;20047;-68
2022/01/03 00:57:13;;;;;;;7.78;1.58;;;27.10;56.00;;;;;;5130124;28;20030;-68
2022/01/03 00:59:44;;;;;;;9.05;2.20;;;27.10;56.40;;;;;;5129987;28;20027;-68
2022/01/03 01:02:12;;;;;;;9.10;2.03;;;27.10;56.30;;;;;;5129763;28;20461;-69
2022/01/03 01:04:39;;;;;;;7.43;1.83;;;27.00;56.60;;;;;;5094522;28;20023;-68
2022/01/03 01:07:06;;;;;;;6.47;2.08;;;27.00;57.30;;;;;;5111524;28;20031;-68
2022/01/03 01:09:33;;;;;;;5.72;1.60;;;27.00;56.70;;;;;;5111616;28;20035;-67
2022/01/03 01:12:01;;;;;;;8.05;1.83;;;27.00;57.10;;;;;;5094755;28;20080;-67
2022/01/03 01:14:28;;;;;;;5.63;1.60;;;27.00;57.80;;;;;;5111143;28;20117;-68
2022/01/03 01:16:56;;;;;;;6.53;1.40;;;27.00;57.40;;;;;;5111024;28;20019;-68
2022/01/03 01:19:23;;;;;;;10.77;1.77;;;27.00;57.90;;;;;;5111590;28;20023;-68
2022/01/03 01:21:51;;;;;;;7.88;1.80;;;27.10;58.80;;;;;;5111208;28;20039;-68
2022/01/03 01:24:20;;;;;;;8.15;2.05;;;27.00;56.50;;;;;;5129116;28;20095;-67
2022/01/03 01:29:35;;;;;;;8.10;2.30;;;26.90;58.80;;;;;;5113573;28;20073;-68
2022/01/03 01:32:03;;;;;;;5.13;2.13;;;26.90;57.40;;;;;;5129151;28;20020;-68
2022/01/03 01:34:32;;;;;;;6.20;1.52;;;26.90;58.90;;;;;;5129217;28;20042;-68
2022/01/03 01:37:00;;;;;;;4.90;1.60;;;26.90;57.50;;;;;;5110937;28;20037;-68
2022/01/03 01:39:28;;;;;;;4.65;1.58;;;26.90;56.40;;;;;;5128690;28;20052;-68
2022/01/03 01:41:58;;;;;;;6.07;1.88;;;26.80;55.70;;;;;;5128935;28;20031;-68
2022/01/03 01:44:25;;;;;;;8.80;1.83;;;26.80;56.40;;;;;;5128470;28;20028;-68
2022/01/03 01:46:55;;;;;;;6.57;1.98;;;26.90;57.80;;;;;;5110672;28;20031;-69
2022/01/03 01:49:24;;;;;;;4.97;1.63;;;26.80;57.20;;;;;;5128816;28;20039;-69
2022/01/03 01:51:58;;;;;;;9.00;1.60;;;26.90;57.10;;;;;;5128901;28;20059;-69
2022/01/03 01:54:33;;;;;;;5.63;1.92;;;26.80;58.30;;;;;;5128570;28;20475;-69
2022/01/03 01:57:17;;;;;;;4.32;1.55;;;26.80;57.00;;;;;;5128809;28;20092;-67
2022/01/03 02:00:02;;;;;;;5.72;1.40;;;26.90;57.60;;;;;;5104223;28;20027;-68
2022/01/03 02:02:36;;;;;;;5.43;1.25;;;26.90;54.20;;;;;;5114802;28;20038;-68
2022/01/03 02:05:10;;;;;;;5.55;1.42;;;27.00;54.30;;;;;;5096671;28;20027;-68
2022/01/03 02:07:58;;;;;;;6.70;1.77;;;26.90;56.10;;;;;;5096884;28;20024;-68
2022/01/03 02:10:30;;;;;;;10.60;2.55;;;26.90;56.00;;;;;;5096271;28;20023;-68
2022/01/03 02:12:57;;;;;;;6.18;1.75;;;27.00;57.70;;;;;;5097278;28;20032;-68
2022/01/03 02:15:24;;;;;;;6.30;1.85;;;27.10;57.90;;;;;;5114533;28;20028;-68
2022/01/03 02:17:51;;;;;;;7.10;1.77;;;27.00;55.60;;;;;;5114554;28;20441;-69
2022/01/03 02:20:23;;;;;;;4.65;1.30;;;27.00;55.50;;;;;;5114536;28;20377;-68
2022/01/03 02:22:50;;;;;;;8.57;1.83;;;27.00;56.40;;;;;;5114510;28;20034;-68
2022/01/03 02:25:18;;;;;;;5.53;1.73;;;26.90;55.60;;;;;;5114005;28;20027;-68
2022/01/03 02:27:46;;;;;;;4.82;1.60;;;27.00;56.90;;;;;;5114278;28;20039;-68
2022/01/03 02:30:15;;;;;;;8.02;1.88;;;27.00;56.40;;;;;;5114399;28;20055;-68
2022/01/03 02:32:43;;;;;;;7.27;1.60;;;26.90;55.60;;;;;;5114219;28;20024;-67
2022/01/03 02:35:10;;;;;;;5.53;1.90;;;26.90;56.10;;;;;;5114706;28;20027;-66
2022/01/03 02:37:39;;;;;;;10.02;2.60;;;26.90;58.10;;;;;;5114514;28;20042;-67
2022/01/03 02:40:10;;;;;;;4.18;1.58;;;26.90;56.80;;;;;;5113892;28;20027;-68
2022/01/03 02:42:40;;;;;;;5.80;2.38;;;26.90;56.60;;;;;;5113908;28;20103;-68
2022/01/03 02:45:10;;;;;;;10.70;4.97;;;26.90;58.20;;;;;;5113968;28;20024;-67
2022/01/03 02:47:37;;;;;;;;;;;26.90;58.30;;;;;;5114198;28;20055;-67
2022/01/03 02:50:05;;;;;;;7.15;1.90;;;26.90;58.30;;;;;;5114046;28;19910;-68
2022/01/03 02:52:36;;;;;;;6.13;2.15;;;26.80;58.10;;;;;;5113453;28;20034;-67
2022/01/03 02:55:04;;;;;;;5.22;1.60;;;26.80;58.70;;;;;;5113783;28;20030;-67
2022/01/03 02:57:35;;;;;;;4.05;1.45;;;26.80;58.20;;;;;;5113869;28;20035;-68
2022/01/03 03:00:03;;;;;;;7.55;1.90;;;26.80;59.40;;;;;;5095626;28;20469;-68
2022/01/03 03:02:30;;;;;;;7.85;1.67;;;26.90;59.50;;;;;;5113865;28;20094;-67
2022/01/03 03:04:59;;;;;;;4.93;1.63;;;26.80;59.00;;;;;;5113215;28;20019;-67
2022/01/03 03:07:29;;;;;;;5.47;2.00;;;26.80;56.10;;;;;;5095535;28;20428;-68
2022/01/03 03:09:56;;;;;;;7.47;1.83;;;26.80;57.40;;;;;;5113203;28;20023;-68
2022/01/03 03:12:23;;;;;;;7.50;1.60;;;26.80;58.70;;;;;;5112388;28;20490;-67
2022/01/03 03:14:51;;;;;;;7.88;2.08;;;26.80;58.50;;;;;;5113267;28;20469;-67
2022/01/03 03:17:21;;;;;;;8.20;2.22;;;26.80;58.80;;;;;;5196630;22;20053;-69
2022/01/03 03:19:52;;;;;;;5.95;2.00;;;26.70;58.80;;;;;;5052657;28;20017;-69
2022/01/03 03:22:19;;;;;;;9.10;2.20;;;26.70;60.50;;;;;;5051644;28;20017;-69
2022/01/03 03:24:46;;;;;;;4.60;1.40;;;26.60;60.10;;;;;;5051299;28;20023;-69
2022/01/03 03:27:13;;;;;;;9.15;2.20;;;26.60;57.90;;;;;;5052631;28;20105;-69
2022/01/03 03:29:48;;;;;;;6.95;1.73;;;26.50;59.30;;;;;;5051135;28;20112;-69
2022/01/03 03:32:16;;;;;;;9.90;2.13;;;26.50;60.10;;;;;;5051622;28;20091;-69
2022/01/03 03:34:43;;;;;;;6.88;1.80;;;26.50;61.10;;;;;;5052506;28;20024;-69
2022/01/03 03:37:10;;;;;;;8.60;2.05;;;26.40;60.00;;;;;;5034896;28;20025;-70
2022/01/03 03:39:39;;;;;;;8.20;1.73;;;26.40;61.10;;;;;;5051930;28;20025;-69
2022/01/03 03:42:09;;;;;;;8.80;1.50;;;26.50;61.50;;;;;;5052207;28;20060;-69
2022/01/03 03:44:36;;;;;;;7.50;2.30;;;26.60;60.90;;;;;;5052216;28;20048;-69
2022/01/03 03:47:04;;;;;;;8.80;2.33;;;26.60;60.50;;;;;;5052506;28;20032;-69
2022/01/03 03:49:32;;;;;;;9.13;2.58;;;26.60;61.30;;;;;;5051984;28;20041;-69
2022/01/03 03:52:01;;;;;;;6.88;1.40;;;26.70;61.10;;;;;;5051024;28;20017;-69
2022/01/03 03:54:29;;;;;;;8.52;1.92;;;26.70;61.00;;;;;;5052149;28;20495;-69
2022/01/03 03:56:57;;;;;;;7.90;2.00;;;26.60;61.30;;;;;;5051864;28;20063;-69
2022/01/03 03:59:27;;;;;;;5.90;1.55;;;26.60;61.30;;;;;;5052023;28;20347;-69
2022/01/03 04:01:55;;;;;;;7.05;1.90;;;26.70;61.40;;;;;;5051666;28;20021;-69
2022/01/03 04:04:22;;;;;;;10.43;2.00;;;26.60;61.30;;;;;;5051972;28;20025;-70
2022/01/03 04:06:49;;;;;;;6.45;2.00;;;26.50;61.40;;;;;;5052175;28;20028;-69
2022/01/03 04:09:16;;;;;;;5.95;1.70;;;26.40;62.20;;;;;;5052080;28;20040;-69
2022/01/03 04:11:43;;;;;;;8.02;2.33;;;26.50;63.50;;;;;;5050738;28;20100;-69
2022/01/03 04:14:11;;;;;;;8.00;1.75;;;26.50;62.50;;;;;;5051861;28;20033;-69
2022/01/03 04:16:39;;;;;;;5.53;1.70;;;26.40;62.30;;;;;;5051366;28;20049;-70
2022/01/03 04:19:06;;;;;;;9.40;3.13;;;26.50;62.70;;;;;;5051859;28;20036;-68
2022/01/03 04:21:33;;;;;;;10.93;2.08;;;26.50;62.70;;;;;;5051825;28;20021;-68
2022/01/03 04:24:01;;;;;;;8.25;1.85;;;26.50;62.50;;;;;;5051213;28;20055;-68
2022/01/03 04:26:28;;;;;;;6.53;2.20;;;26.50;62.60;;;;;;5051781;28;20029;-68
2022/01/03 04:28:55;;;;;;;5.97;1.98;;;26.50;62.20;;;;;;5051774;28;20053;-68
2022/01/03 04:31:22;;;;;;;8.95;2.05;;;26.50;62.50;;;;;;5050248;28;20029;-69
2022/01/03 04:33:49;;;;;;;4.60;1.60;;;26.50;62.30;;;;;;5051329;28;20423;-68
2022/01/03 04:36:17;;;;;;;11.50;2.38;;;26.40;62.60;;;;;;5051624;28;20036;-68
2022/01/03 04:38:44;;;;;;;11.13;2.60;;;26.40;62.50;;;;;;5051149;28;20045;-69
2022/01/03 04:41:12;;;;;;;4.45;1.75;;;26.30;63.30;;;;;;5049866;28;20071;-69
2022/01/03 04:43:41;;;;;;;8.27;2.25;;;26.30;63.80;;;;;;5051499;28;20032;-69
2022/01/03 04:46:09;;;;;;;8.45;2.00;;;26.30;64.50;;;;;;5049810;28;20021;-68
2022/01/03 04:48:40;;;;;;;9.68;2.13;;;26.30;63.70;;;;;;5049918;28;20498;-68
2022/01/03 04:51:08;;;;;;;5.68;2.00;;;26.30;63.30;;;;;;5051412;28;20546;-68
2022/01/03 04:53:39;;;;;;;5.00;1.70;;;26.30;63.60;;;;;;5050834;28;20025;-69
2022/01/03 04:56:09;;;;;;;12.02;1.80;;;26.30;63.50;;;;;;5050850;28;20023;-69
2022/01/03 04:58:36;;;;;;;7.05;2.08;;;26.30;63.70;;;;;;5051852;28;20360;-69
2022/01/03 05:01:03;;;;;;;9.57;1.80;;;26.30;64.00;;;;;;5049913;28;20083;-69
2022/01/03 05:03:31;;;;;;;7.22;1.98;;;26.30;64.30;;;;;;5051215;28;20059;-69
2022/01/03 05:05:59;;;;;;;7.97;2.22;;;26.20;64.60;;;;;;5051449;28;20056;-69
2022/01/03 05:08:26;;;;;;;7.65;2.20;;;26.10;64.90;;;;;;5051124;28;20048;-68
2022/01/03 05:10:53;;;;;;;8.77;1.75;;;26.10;65.50;;;;;;5051340;28;20052;-68
2022/01/03 05:13:20;;;;;;;8.45;2.33;;;26.10;66.20;;;;;;5050075;28;20025;-68
2022/01/03 05:15:48;;;;;;;8.65;2.38;;;26.10;66.10;;;;;;5051086;28;20032;-69
2022/01/03 05:18:15;;;;;;;7.60;1.80;;;26.00;66.40;;;;;;5049320;28;20044;-69
2022/01/03 05:20:42;;;;;;;7.63;2.10;;;26.00;67.40;;;;;;5050795;28;20020;-69
2022/01/03 05:23:09;;;;;;;13.18;2.50;;;25.90;68.00;;;;;;5033115;28;20028;-69
2022/01/03 05:25:36;;;;;;;6.50;1.77;;;25.90;67.60;;;;;;5050860;28;20032;-69
2022/01/03 05:28:04;;;;;;;8.75;2.53;;;25.90;67.70;;;;;;5050698;28;20148;-69
2022/01/03 05:30:31;;;;;;;8.43;2.10;;;25.80;66.60;;;;;;5050845;28;20021;-69
2022/01/03 05:32:58;;;;;;;9.25;2.05;;;25.80;67.40;;;;;;5050947;28;20454;-69
2022/01/03 05:35:25;;;;;;;10.73;2.53;;;25.80;67.00;;;;;;5035011;28;20025;-69
2022/01/03 05:37:53;;;;;;;9.57;2.20;;;25.80;67.10;;;;;;5053349;28;20021;-69
2022/01/03 05:40:20;;;;;;;7.45;1.95;;;25.90;66.70;;;;;;5054655;28;20035;-69
2022/01/03 05:42:47;;;;;;;7.60;2.25;;;25.90;67.00;;;;;;5054730;28;20021;-68
2022/01/03 05:45:14;;;;;;;10.98;3.00;;;25.90;66.30;;;;;;5054152;28;20513;-68
2022/01/03 05:47:45;;;;;;;7.97;2.15;;;26.00;66.00;;;;;;5054377;28;20025;-69
2022/01/03 05:50:13;;;;;;;6.75;1.92;;;25.90;65.40;;;;;;5054415;28;20047;-69
2022/01/03 05:52:40;;;;;;;5.90;1.88;;;26.00;65.30;;;;;;5054301;28;20092;-69
2022/01/03 05:55:08;;;;;;;8.60;2.15;;;26.10;65.20;;;;;;5052937;28;20177;-69
2022/01/03 05:57:35;;;;;;;10.85;2.92;;;26.00;65.50;;;;;;5054108;28;20479;-69
2022/01/03 06:00:04;;;;;;;11.02;2.63;;;26.00;64.70;;;;;;5053958;28;20033;-69
2022/01/03 06:02:36;;;;;;;10.43;2.90;;;26.00;63.50;;;;;;5054423;28;20025;-68
2022/01/03 06:05:06;;;;;;;8.55;2.03;;;26.00;63.60;;;;;;5054073;28;20360;-69
2022/01/03 06:07:33;;;;;;;6.55;2.30;;;26.00;63.60;;;;;;5053017;28;20091;-69
2022/01/03 06:10:02;;;;;;;5.88;1.73;;;25.90;61.80;;;;;;5053558;28;20029;-69
2022/01/03 06:12:29;;;;;;;6.72;1.92;;;25.90;62.70;;;;;;5053979;28;20075;-68
2022/01/03 06:14:56;;;;;;;7.72;1.98;;;25.80;63.10;;;;;;5053994;28;20033;-69
2022/01/03 06:17:24;;;;;;;6.22;2.03;;;25.80;62.70;;;;;;5053795;28;20063;-69
2022/01/03 06:19:51;;;;;;;6.95;1.77;;;25.80;63.20;;;;;;5036058;28;20021;-68
2022/01/03 06:22:18;;;;;;;5.57;1.70;;;25.90;62.60;;;;;;5054231;28;20032;-69
2022/01/03 06:24:45;;;;;;;10.43;2.25;;;25.80;62.20;;;;;;5053938;28;20071;-69
2022/01/03 06:27:12;;;;;;;10.00;2.53;;;25.90;63.10;;;;;;5054245;28;20103;-70
2022/01/03 06:29:39;;;;;;;9.57;2.20;;;25.90;63.80;;;;;;5054260;28;20044;-70
2022/01/03 06:32:07;;;;;;;7.60;2.13;;;26.00;63.00;;;;;;5053891;28;20025;-70
2022/01/03 06:34:34;;;;;;;9.73;2.03;;;25.90;62.70;;;;;;5054011;28;20029;-70
2022/01/03 06:37:01;;;;;;;6.93;1.73;;;25.90;61.90;;;;;;5054108;28;20355;-70
2022/01/03 06:39:28;;;;;;;7.00;1.55;;;25.90;62.70;;;;;;5053925;28;20387;-71
2022/01/03 06:41:55;;;;;;;7.68;1.88;;;25.80;61.90;;;;;;5053595;28;20039;-70
2022/01/03 06:44:23;;;;;;;5.72;1.60;;;25.80;62.30;;;;;;5052667;28;20017;-70
2022/01/03 06:46:51;;;;;;;6.97;1.92;;;25.80;62.40;;;;;;5052254;28;20376;-70
2022/01/03 06:49:18;;;;;;;6.00;1.63;;;25.80;61.40;;;;;;5053588;28;20041;-70
2022/01/03 06:51:46;;;;;;;8.70;2.30;;;25.70;61.70;;;;;;5053582;28;20048;-71
2022/01/03 06:54:14;;;;;;;5.75;1.55;;;25.70;61.70;;;;;;5053577;28;20039;-70
2022/01/03 06:56:41;;;;;;;6.88;1.90;;;25.70;60.40;;;;;;5053853;28;20032;-70
2022/01/03 06:59:09;;;;;;;11.00;2.00;;;25.70;61.40;;;;;;5053754;28;20079;-70
2022/01/03 07:01:36;;;;;;;5.38;2.25;;;25.80;62.50;;;;;;5053472;28;20113;-70
2022/01/03 07:04:03;;;;;;;8.55;1.80;;;25.80;63.30;;;;;;5053520;28;20036;-70
2022/01/03 07:06:32;;;;;;;7.05;1.88;;;25.80;63.70;;;;;;5053257;28;20519;-71
2022/01/03 07:08:59;;;;;;;5.93;1.90;;;25.80;62.00;;;;;;5053184;28;20037;-70
2022/01/03 07:11:26;;;;;;;8.18;2.05;;;25.70;60.50;;;;;;5035703;28;20021;-70
2022/01/03 07:14:05;;;;;;;7.32;1.80;;;25.70;62.40;;;;;;5051869;28;20032;-70
2022/01/03 07:19:17;;;;;;;9.70;2.10;;;25.70;62.80;;;;;;5052069;28;20024;-71
2022/01/03 07:21:44;;;;;;;7.32;2.13;;;25.80;63.70;;;;;;5052682;28;20040;-70
2022/01/03 07:24:11;;;;;;;6.30;1.88;;;25.70;64.60;;;;;;5051998;28;20018;-70
2022/01/03 07:26:38;;;;;;;5.72;1.80;;;25.70;64.90;;;;;;5053212;28;20021;-71
2022/01/03 07:29:06;;;;;;;6.40;1.88;;;25.60;63.90;;;;;;5052952;28;20048;-71
2022/01/03 07:31:33;;;;;;;6.15;1.75;;;25.60;64.40;;;;;;5052862;28;20408;-70
2022/01/03 07:34:00;;;;;;;7.15;1.77;;;25.60;63.90;;;;;;5052929;28;20020;-70
2022/01/03 07:36:28;;;;;;;7.25;2.22;;;25.60;64.50;;;;;;5053105;28;20017;-70
2022/01/03 07:38:55;;;;;;;7.10;1.70;;;25.50;64.30;;;;;;5052869;28;20143;-70
2022/01/03 07:41:22;;;;;;;9.05;2.17;;;25.50;63.90;;;;;;5052807;28;20029;-70
2022/01/03 07:43:49;;;;;;;5.38;1.70;;;25.50;62.10;;;;;;5035093;28;20534;-70
2022/01/03 07:46:16;;;;;;;9.73;2.55;;;25.50;62.20;;;;;;5051285;28;20032;-70
2022/01/03 07:48:44;;;;;;;7.75;2.35;;;25.50;62.80;;;;;;5052686;28;20040;-70
2022/01/03 07:51:11;;;;;;;7.85;2.35;;;25.40;64.10;;;;;;5052753;28;20031;-70
2022/01/03 07:53:38;;;;;;;10.27;2.70;;;25.40;64.00;;;;;;5052379;28;20083;-70
2022/01/03 07:56:05;;;;;;;13.63;2.03;;;25.40;64.40;;;;;;5052689;28;20017;-69
2022/01/03 07:58:32;;;;;;;9.25;2.05;;;25.30;64.70;;;;;;5051986;28;20032;-70
2022/01/03 08:01:00;;;;;;;8.10;1.98;;;25.30;65.60;;;;;;5052524;28;20027;-70
2022/01/03 08:03:27;;;;;;;11.93;2.70;;;25.30;65.80;;;;;;5052207;28;20052;-70
2022/01/03 08:05:54;;;;;;;5.97;2.05;;;25.30;65.90;;;;;;5051232;28;20037;-70
2022/01/03 08:08:22;;;;;;;15.23;2.80;;;25.30;66.70;;;;;;5052289;28;20025;-70
2022/01/03 08:10:49;;;;;;;10.85;2.72;;;25.30;66.40;;;;;;5052069;28;20021;-70
2022/01/03 08:13:16;;;;;;;10.85;2.47;;;25.30;66.50;;;;;;5052216;28;20044;-70
2022/01/03 08:15:44;;;;;;;7.40;2.13;;;25.30;67.20;;;;;;5050812;28;20068;-70
2022/01/03 08:18:12;;;;;;;9.65;2.47;;;25.30;67.20;;;;;;5051902;28;20069;-70
2022/01/03 08:20:39;;;;;;;12.52;3.20;;;25.30;67.50;;;;;;5052022;28;20100;-70
2022/01/03 08:23:06;;;;;;;7.30;2.03;;;25.20;67.50;;;;;;5050731;28;20376;-70
2022/01/03 08:25:37;;;;;;;8.18;2.20;;;25.30;68.30;;;;;;5051860;28;20033;-70
2022/01/03 08:28:06;;;;;;;12.90;2.47;;;25.30;68.20;;;;;;5050666;28;20342;-70
2022/01/03 08:30:33;;;;;;;9.57;2.50;;;25.30;68.60;;;;;;5051866;28;20028;-69
2022/01/03 08:33:01;;;;;;;14.05;2.80;;;25.20;67.80;;;;;;5052018;28;20021;-70
2022/01/03 08:35:28;;;;;;;9.38;2.60;;;25.20;68.10;;;;;;5050467;28;20110;-70
2022/01/03 08:37:55;;;;;;;13.63;2.40;;;25.20;68.40;;;;;;5051789;28;20032;-70
2022/01/03 08:40:22;;;;;;;10.13;2.08;;;25.20;68.40;;;;;;5033980;28;20111;-70
2022/01/03 08:42:51;;;;;;;12.82;2.75;;;25.20;68.90;;;;;;5051700;28;20025;-70
2022/01/03 08:45:18;;;;;;;12.40;2.33;;;25.10;69.20;;;;;;5051736;28;20451;-69
2022/01/03 08:47:45;;;;;;;6.88;2.40;;;25.10;69.30;;;;;;5051804;28;20074;-70
2022/01/03 08:50:15;;;;;;;14.18;3.30;;;25.20;69.50;;;;;;5051333;28;20033;-69
2022/01/03 08:52:42;;;;;;;10.15;2.20;;;25.20;70.00;;;;;;5051179;28;20025;-70
2022/01/03 08:55:10;;;;;;;9.55;2.30;;;25.10;69.80;;;;;;5051523;28;20032;-70
2022/01/03 08:57:38;;;;;;;12.98;2.90;;;25.10;70.40;;;;;;5050262;28;20024;-68
2022/01/03 09:00:07;;;;;;;14.32;2.60;;;25.10;70.70;;;;;;5050354;28;20021;-69
2022/01/03 09:02:34;;;;;;;10.10;2.70;;;25.00;70.80;;;;;;5050620;28;20021;-69
2022/01/03 09:05:01;;;;;;;10.98;2.25;;;25.00;70.80;;;;;;5051355;28;20035;-70
2022/01/03 09:07:29;;;;;;;10.98;2.78;;;24.90;71.00;;;;;;5051371;28;20422;-70
2022/01/03 09:09:56;;;;;;;11.45;2.85;;;24.90;70.90;;;;;;5052290;28;20065;-70
2022/01/03 09:12:23;;;;;;;12.82;2.90;;;24.80;70.20;;;;;;5055366;28;20390;-69
2022/01/03 09:14:51;;;;;;;13.07;2.80;;;24.80;70.00;;;;;;5054254;28;20487;-69
2022/01/03 09:17:18;;;;;;;12.98;2.92;;;24.80;69.80;;;;;;5055509;28;20087;-69
2022/01/03 09:19:45;;;;;;;9.65;2.70;;;24.80;70.10;;;;;;5053858;28;20025;-69
2022/01/03 09:22:17;;;;;;;11.85;2.90;;;24.80;70.20;;;;;;5055444;28;20566;-69
2022/01/03 09:30:03;;;;;;;13.55;2.75;;;24.80;70.90;;;;;;5053911;28;20056;-69
2022/01/03 09:32:30;;;;;;;13.50;2.45;;;24.70;71.30;;;;;;5053659;28;20054;-69
2022/01/03 09:34:58;;;;;;;11.55;3.08;;;24.70;71.50;;;;;;5055053;28;20025;-70
2022/01/03 09:37:25;;;;;;;9.80;2.78;;;24.70;70.90;;;;;;5055044;28;20488;-69
2022/01/03 09:39:53;;;;;;;13.27;2.83;;;24.70;70.70;;;;;;5054936;28;20036;-70
2022/01/03 09:42:37;;;;;;;17.85;3.05;;;24.70;70.70;;;;;;5054925;28;20071;-69
2022/01/03 09:45:06;;;;;;;17.05;3.28;;;24.60;71.00;;;;;;5053714;28;20017;-69
2022/01/03 09:47:34;;;;;;;12.73;2.75;;;24.60;71.00;;;;;;5054660;28;20082;-70
2022/01/03 09:50:01;;;;;;;11.18;2.45;;;24.60;70.50;;;;;;5053869;28;20029;-69
2022/01/03 09:52:29;;;;;;;11.82;2.53;;;24.60;69.90;;;;;;5054588;28;20071;-70
2022/01/03 09:54:57;;;;;;;14.70;3.28;;;24.60;70.00;;;;;;5037305;28;20029;-69
2022/01/03 09:57:25;;;;;;;15.07;2.70;;;24.60;69.80;;;;;;5053405;28;20052;-70
2022/01/03 09:59:53;;;;;;;15.13;3.17;;;24.50;69.40;;;;;;5054394;28;20025;-69
2022/01/03 10:02:21;;;;;;;14.65;3.03;;;24.50;69.80;;;;;;5053268;28;20391;-70
2022/01/03 10:04:48;;;;;;;13.45;2.83;;;24.50;70.10;;;;;;5053267;28;20033;-69
2022/01/03 10:07:17;;;;;;;10.20;3.38;;;24.50;70.30;;;;;;5053377;28;20081;-70
2022/01/03 10:09:44;;;;;;;12.45;2.72;;;24.50;70.00;;;;;;5054091;28;20029;-69
2022/01/03 10:12:16;;;;;;;14.02;3.03;;;24.50;70.00;;;;;;5054171;28;20313;-70
2022/01/03 10:14:43;;;;;;;10.80;2.60;;;24.60;70.10;;;;;;5054552;28;20051;-69
2022/01/03 10:17:10;;;;;;;12.32;2.70;;;24.60;69.80;;;;;;5053326;28;20402;-69
2022/01/03 10:20:11;;;;;;;11.38;4.05;;;24.50;69.90;;;;;;5054302;28;20167;-69
2022/01/03 10:22:38;;;;;;;8.75;2.50;;;24.50;69.80;;;;;;5021309;28;20048;-70
2022/01/03 10:25:24;;;;;;;15.30;3.15;;;24.50;69.40;;;;;;5054106;28;20320;-70
2022/01/03 10:28:03;;;;;;;12.88;3.08;;;24.40;70.00;;;;;;5052806;28;20264;-69
2022/01/03 10:30:31;;;;;;;14.30;3.13;;;24.40;70.40;;;;;;5054248;28;20071;-69
2022/01/03 10:32:59;;;;;;;10.38;2.67;;;24.40;70.50;;;;;;5054137;28;20454;-70
2022/01/03 10:35:26;;;;;;;15.13;3.20;;;24.40;70.60;;;;;;5053914;28;20029;-70
2022/01/03 10:37:53;;;;;;;9.80;2.17;;;24.50;70.40;;;;;;5054003;28;20017;-69
2022/01/03 10:40:25;;;;;;;10.20;3.00;;;24.40;70.60;;;;;;5052786;28;20032;-70
2022/01/03 10:42:53;;;;;;;11.00;2.55;;;24.50;70.80;;;;;;5052621;28;20071;-69
2022/01/03 10:45:33;;;;;;;14.40;2.88;;;24.50;70.80;;;;;;5053728;28;20021;-70
2022/01/03 10:48:01;;;;;;;13.98;3.55;;;24.50;70.70;;;;;;5053648;28;20061;-70
2022/01/03 10:50:28;;;;;;;10.45;2.65;;;24.40;71.00;;;;;;5053546;28;20021;-69
2022/01/03 10:52:56;;;;;;;13.18;2.92;;;24.40;71.20;;;;;;5053672;28;20102;-69
2022/01/03 10:55:33;;;;;;;16.15;3.25;;;24.40;71.50;;;;;;5053601;28;20190;-69
2022/01/03 10:58:02;;;;;;;17.08;3.40;;;24.40;71.30;;;;;;5053711;28;20087;-69
2022/01/03 11:00:36;;;;;;;16.30;3.03;;;24.40;71.40;;;;;;5053598;28;20104;-69
2022/01/03 11:05:51;;;;;;;20.67;2.80;;;24.40;71.50;;;;;;5053394;28;20035;-69
2022/01/03 11:11:03;;;;;;;11.18;2.67;;;24.30;71.10;;;;;;5053452;28;20091;-69
2022/01/03 11:13:32;;;;;;;16.40;3.15;;;24.30;71.40;;;;;;5052265;28;20020;-70
2022/01/03 11:16:04;;;;;;;11.50;2.30;;;24.30;71.50;;;;;;5052014;28;20025;-69
2022/01/03 11:18:32;;;;;;;12.13;2.80;;;24.30;71.70;;;;;;5053286;28;20048;-70
2022/01/03 11:21:13;;;;;;;14.38;2.90;;;24.30;71.90;;;;;;5053078;28;20449;-69
2022/01/03 11:23:42;;;;;;;13.25;2.90;;;24.20;72.00;;;;;;5053126;28;20025;-69
2022/01/03 11:26:11;;;;;;;13.23;3.25;;;24.30;72.10;;;;;;5053220;28;20063;-69
2022/01/03 11:28:39;;;;;;;16.27;3.95;;;24.30;71.90;;;;;;5052931;28;20479;-70
2022/01/03 11:31:07;;;;;;;11.75;2.70;;;24.30;71.60;;;;;;5052745;28;20056;-70
2022/01/03 11:33:38;;;;;;;11.52;2.72;;;24.20;71.70;;;;;;5050733;28;20391;-69
2022/01/03 11:36:06;;;;;;;16.90;2.53;;;24.20;71.70;;;;;;5052783;28;20151;-70
2022/01/03 11:38:35;;;;;;;13.55;2.65;;;24.20;71.40;;;;;;5052463;28;20021;-69
2022/01/03 11:41:04;;;;;;;11.63;3.38;;;24.20;71.30;;;;;;5051149;28;20112;-70
2022/01/03 11:43:34;;;;;;;11.15;2.63;;;24.20;71.50;;;;;;5052452;28;20036;-69
2022/01/03 11:46:02;;;;;;;12.55;3.10;;;24.20;71.50;;;;;;5052782;28;20041;-70
2022/01/03 11:48:29;;;;;;;14.02;3.22;;;24.20;71.40;;;;;;5051319;28;20104;-70
2022/01/03 11:50:58;;;;;;;10.40;2.58;;;24.20;71.20;;;;;;5051207;28;20037;-69
2022/01/03 11:53:25;;;;;;;10.82;2.47;;;24.20;71.30;;;;;;5035264;28;20017;-69
2022/01/03 11:55:57;;;;;;;13.13;2.40;;;24.20;71.60;;;;;;5051302;28;20578;-69
2022/01/03 12:04:39;;;;;;;11.82;2.55;;;24.20;71.20;;;;;;5052317;28;20028;-70
2022/01/03 12:07:11;;;;;;;10.13;2.50;;;24.10;70.80;;;;;;5052301;28;20119;-70
2022/01/03 12:09:43;;;;;;;8.35;2.15;;;24.10;70.90;;;;;;5052185;28;20037;-69
2022/01/03 12:12:10;;;;;;;12.18;2.63;;;24.10;70.80;;;;;;5051145;28;20056;-69
2022/01/03 12:14:45;;;;;;;14.10;2.88;;;24.20;70.80;;;;;;5051114;28;20061;-69
2022/01/03 12:17:14;;;;;;;11.57;2.60;;;24.20;70.60;;;;;;5051761;28;20095;-69
2022/01/03 12:19:46;;;;;;;11.30;2.78;;;24.10;70.50;;;;;;5052083;28;20033;-69
2022/01/03 12:22:22;;;;;;;11.45;2.38;;;24.10;70.60;;;;;;5034730;28;20432;-70
2022/01/03 12:25:03;;;;;;;12.13;2.80;;;24.20;70.70;;;;;;5050791;28;20017;-69
2022/01/03 12:27:35;;;;;;;10.43;2.65;;;24.20;70.60;;;;;;5050556;28;20029;-69
2022/01/03 12:30:02;;;;;;;13.80;3.13;;;24.20;70.30;;;;;;5050354;28;20449;-69
2022/01/03 12:33:04;;;;;;;11.27;2.47;;;24.10;70.10;;;;;;5051990;28;20017;-69
2022/01/03 12:35:34;;;;;;;11.95;2.83;;;24.20;70.10;;;;;;5051897;28;20375;-69
2022/01/03 12:38:04;;;;;;;11.95;2.83;;;24.20;70.00;;;;;;5050663;28;20094;-70
2022/01/03 12:40:32;;;;;;;11.25;2.40;;;24.10;70.10;;;;;;5051830;28;20394;-70
2022/01/03 12:43:07;;;;;;;14.23;2.90;;;24.10;70.20;;;;;;5051841;28;20078;-68
2022/01/03 12:45:39;;;;;;;9.23;2.58;;;24.10;70.20;;;;;;5051838;28;20028;-69
2022/01/03 12:48:14;;;;;;;10.93;2.10;;;24.10;70.40;;;;;;5051940;28;20060;-70
2022/01/03 12:50:48;;;;;;;15.07;2.83;;;24.10;70.70;;;;;;5050337;28;20084;-69
2022/01/03 12:53:26;;;;;;;13.43;2.65;;;24.10;70.90;;;;;;5051618;28;20028;-69
2022/01/03 12:56:08;;;;;;;15.13;2.80;;;24.10;71.10;;;;;;5051708;28;20056;-70
2022/01/03 12:58:35;;;;;;;9.35;2.50;;;24.10;71.30;;;;;;5050627;28;20021;-69
2022/01/03 13:01:08;;;;;;;11.80;2.20;;;24.10;71.00;;;;;;5051326;28;20028;-69
2022/01/03 13:03:49;;;;;;;12.55;2.72;;;24.00;71.10;;;;;;5051696;28;20066;-69
2022/01/03 13:06:26;;;;;;;11.85;2.40;;;24.00;71.30;;;;;;5051765;28;20029;-70
2022/01/03 13:08:56;;;;;;;11.85;2.38;;;24.00;71.00;;;;;;5051442;28;20439;-70
2022/01/03 13:11:25;;;;;;;13.13;2.70;;;24.00;71.00;;;;;;5051844;28;20021;-70
2022/01/03 13:13:53;;;;;;;9.65;2.50;;;23.90;70.70;;;;;;5051754;28;20032;-69
2022/01/03 13:16:25;;;;;;;12.15;2.30;;;23.90;70.70;;;;;;5051513;28;20028;-69